Flight Track Log - Related Links

Times and Time Zones

All times are in EDT time to prevent confusion due to time zone crossing. See the CTL309 flight status page for this flight to view local times or setup timezone preferences in your user account.

Time Position Orientation Groundspeed Altitude Reporting Facility
EDT Latitude Longitude Course Direction KTS MPH feet Rate Location/Type
Tue 01:06:46 AM 40.0692 -83.1094 200° South 96 110 2,000  Level Indianapolis Center
Tue 01:08:09 AM 40.0294 -83.1286 200° South 114 131 2,900 429 Climbing Indianapolis Center
Tue 01:09:06 AM 39.9919 -83.1486 202° Southwest 145 167 3,000  Climbing Indianapolis Center
Tue 01:10:06 AM 39.9561 -83.1703 205° Southwest 136 157 2,900 -52 Descending Indianapolis Center
Tue 01:11:01 AM 39.9231 -83.1867 201° Southwest 142 163 2,900  Level Indianapolis Center
Tue 01:12:01 AM 39.8894 -83.2083 206° Southwest 138 159 2,900  Level Indianapolis Center
Tue 01:13:08 AM 39.8475 -83.2286 200° South 138 159 2,900  Level Indianapolis Center
Tue 01:14:09 AM 39.8142 -83.2478 204° Southwest 135 155 2,900 -50 Level Indianapolis Center
Tue 01:15:09 AM 39.7772 -83.2608 195° South 145 167 2,800  Descending Indianapolis Center
Tue 01:16:10 AM 39.7400 -83.2764 198° South 139 160 2,900 50 Climbing Indianapolis Center
Tue 01:17:10 AM 39.6997 -83.2781 182° South 146 168 2,900  Level Indianapolis Center
Tue 01:18:11 AM 39.6600 -83.2769 179° South 145 167 2,900  Level Indianapolis Center
Tue 01:19:12 AM 39.6211 -83.2867 191° South 144 166 2,900 -50 Level Indianapolis Center
Tue 01:20:12 AM 39.5792 -83.2853 179° South 151 174 2,800 -50 Descending Indianapolis Center
Tue 01:21:13 AM 39.5406 -83.2953 191° South 142 163 2,800  Level Indianapolis Center
Tue 01:22:13 AM 39.5000 -83.2994 185° South 143 165 2,800  Level Indianapolis Center
Tue 01:23:14 AM 39.4633 -83.3097 192° South 134 154 2,800  Level Indianapolis Center
Tue 01:24:15 AM 39.4272 -83.3147 186° South 138 159 2,800 50 Level Indianapolis Center
Tue 01:25:15 AM 39.3889 -83.3192 185° South 138 159 2,900  Climbing Indianapolis Center
Tue 01:26:16 AM 39.3556 -83.3250 188° South 136 157 2,800 -149 Descending Indianapolis Center
Tue 01:27:16 AM 39.3186 -83.3483 206° Southwest 127 146 2,600 -149 Descending Indianapolis Center
Tue 01:28:17 AM 39.2967 -83.3797 228° Southwest 120 138 2,500  Descending Indianapolis Center
Tue 01:29:17 AM 39.2781 -83.4064 228° Southwest 123 142 2,600 -99 Climbing Indianapolis Center
Tue 01:30:18 AM 39.2547 -83.4406 229° Southwest 121 139 2,300 -347 Descending Indianapolis Center
Tue 01:31:18 AM 39.2250 -83.4828 228° Southwest 124 143 1,900 -400 Descending Indianapolis Center

Login

Don't have an account? Register now (free) for customized features, flight alerts, and more!